Pfugerville's Hourly Summary for Wednesday, March 15, 2017
Hour Temp
(f)
RH
(%)
Solar Rad.
(MJ/m2)
Rainfall
(in)
Wind
(mph)
3/15/2017 12:00 AM 54 65 0 0 0.3
3/15/2017 1:00 AM 53 68 0 0 0.94
3/15/2017 2:00 AM 51 78 0 0 1.07
3/15/2017 3:00 AM 50 81 0 0 2.39
3/15/2017 4:00 AM 48 93 0 0 0.62
3/15/2017 5:00 AM 47 99 0 0 0
3/15/2017 6:00 AM 47 100 0 0 0.86
3/15/2017 7:00 AM 47 100 0 0 0.51
3/15/2017 8:00 AM 46 100 0.02 0 2.56
3/15/2017 9:00 AM 48 100 0.36 0 3.57
3/15/2017 10:00 AM 52 99 0.87 0 4.06
3/15/2017 11:00 AM 56 91 1.62 0 3.8
3/15/2017 12:00 PM 61 66 2.54 0 3.79
3/15/2017 1:00 PM 65 38 2.95 0 4.41
3/15/2017 2:00 PM 67 37 3.14 0 6.46
3/15/2017 3:00 PM 69 38 3.07 0 5.98
3/15/2017 4:00 PM 70 40 2.74 0 6.45
3/15/2017 5:00 PM 71 40 1.86 0 7.61
3/15/2017 6:00 PM 71 44 0.93 0 8
3/15/2017 7:00 PM 70 46 0.33 0 7.81
3/15/2017 8:00 PM 68 53 0.04 0 6.13
3/15/2017 9:00 PM 66 57 0 0 4.81
3/15/2017 10:00 PM 65 64 0 0 5.33
3/15/2017 11:00 PM 63 69 0 0 4.58
Data Summary 58 69 20.47 0.00 3.84